• Join FlightAware (Why Join?)
  • Login
  • US Flag 
08:16AM EDT


 

Airport Tracker/Info


-or-


 

Live Flight TrackerFlight Track Log ✈ DAL2033 ✈ 23-May-2013 ✈ KATL - KATL

Flight Track Log - Related Links

Times and Time Zones

All times are in EDT time to prevent confusion due to time zone crossing. See the DAL2033 flight status page for this flight to view local times or setup timezone preferences in your user account.

Time Position Orientation Groundspeed Altitude Reporting Facility
EDT Latitude Longitude Course Direction KTS MPH feet Rate Location/Type
03:17PM 33.6500 -84.4667 296° West 174 200 2,300  Level Atlanta TRACON
03:18PM 33.6833 -84.5500 296° West 247 284 4,100 2,220 Climbing Atlanta TRACON
03:19PM 33.7333 -84.5833 331° Northwest 274 315 6,800 2,400 Climbing Atlanta TRACON
03:20PM 33.8392 -84.5439 17° North 274 315 10,300 1,680 Climbing Atlanta Center
03:21PM 33.9022 -84.4567 49° Northeast 290 334 11,100 1,200 Climbing Atlanta Center
03:22PM 33.9900 -84.3794 36° Northeast 359 413 12,700 1,800 Climbing Atlanta Center
03:23PM 34.0922 -84.3472 15° North 378 435 14,700 1,980 Climbing Atlanta Center
03:24PM 34.2114 -84.3075 15° North 411 473 16,700 1,800 Climbing Atlanta Center
03:25PM 34.3306 -84.2728 14° North 424 488 18,400 1,620 Climbing Atlanta Center
03:26PM 34.4494 -84.2428 12° North 436 502 20,000 1,380 Climbing Atlanta Center
03:27PM 34.5747 -84.2128 11° North 443 510 21,200 1,200 Climbing Atlanta Center
03:28PM 34.6875 -84.1903 North 453 521 22,400 1,260 Climbing Atlanta Center
03:29PM 34.8189 -84.1578 11° North 458 527 23,800 1,500 Climbing Atlanta Center
03:31PM 35.0756 -84.0972 11° North 469 540 26,900 1,380 Climbing Atlanta Center
03:32PM 35.2072 -84.0642 12° North 469 540 28,100 1,200 Climbing Atlanta Center
03:33PM 35.3364 -84.0336 11° North 469 540 29,300 960 Climbing Atlanta Center
03:34PM 35.4636 -84.0006 12° North 469 540 30,100 900 Climbing Atlanta Center
03:35PM 35.5911 -83.9597 15° North 469 540 31,200 900 Climbing Atlanta Center
03:36PM 35.7097 -83.8981 23° Northeast 469 540 31,900 720 Climbing Atlanta Center
03:37PM 35.8308 -83.8364 22° Northeast 469 540 32,700 540 Climbing Atlanta Center
03:38PM 35.9517 -83.7769 22° Northeast 469 540 33,000 120 Climbing Atlanta Center
03:39PM 36.0725 -83.7150 23° Northeast 469 540 33,000  Level Atlanta Center
03:40PM 36.1672 -83.6658 23° Northeast 465 535 33,000  Level Indianapolis Center
03:41PM 36.2861 -83.6067 22° Northeast 464 534 33,000  Level Indianapolis Center
03:42PM 36.4058 -83.5450 23° Northeast 466 536 33,000  Level Indianapolis Center
03:43PM 36.5344 -83.4822 21° North 469 540 33,000  Level Indianapolis Center
03:44PM 36.6539 -83.4175 23° Northeast 465 535 33,000  Level Indianapolis Center
03:45PM 36.7864 -83.3197 31° Northeast 468 539 33,000  Level Indianapolis Center
03:46PM 36.9017 -83.2372 30° Northeast 472 543 33,000  Level Indianapolis Center
03:47PM 37.0175 -83.1539 30° Northeast 473 544 33,000  Level Indianapolis Center
03:48PM 37.1339 -83.0703 30° Northeast 475 547 33,000  Level Indianapolis Center
03:49PM 37.2494 -82.9872 30° Northeast 472 543 33,000  Level Indianapolis Center
03:50PM 37.3747 -82.9336 19° North 474 545 33,000  Level Indianapolis Center
03:51PM 37.4997 -82.8789 19° North 473 544 33,000  Level Indianapolis Center
03:52PM 37.6450 -82.8119 20° North 475 547 33,000  Level Indianapolis Center
03:53PM 37.7700 -82.7572 19° North 472 543 33,000  Level Indianapolis Center
03:54PM 37.8956 -82.7022 19° North 476 548 33,000  Level Indianapolis Center
03:56PM 38.0158 -82.6306 25° Northeast 475 547 33,000  Level Indianapolis Center
03:57PM 38.1367 -82.5511 27° Northeast 485 558 33,000  Level Indianapolis Center
03:58PM 38.2619 -82.4525 32° Northeast 483 556 33,000  Level Indianapolis Center
03:59PM 38.3764 -82.3569 33° Northeast 488 562 33,000  Level Indianapolis Center
04:00PM 38.4900 -82.2617 33° Northeast 487 560 33,000  Level Indianapolis Center
04:01PM 38.6053 -82.1636 34° Northeast 492 566 33,000  Level Indianapolis Center
04:02PM 38.7219 -82.0644 34° Northeast 498 573 33,000  Level Indianapolis Center
04:03PM 38.8397 -81.9672 33° Northeast 497 572 33,000  Level Indianapolis Center
04:04PM 38.9578 -81.8675 33° Northeast 500 575 33,000  Level Indianapolis Center
04:05PM 39.0975 -81.7453 34° Northeast 501 577 33,000  Level Indianapolis Center
04:06PM 39.2167 -81.6417 34° Northeast 512 589 33,000  Level Indianapolis Center
04:07PM 39.3347 -81.5400 34° Northeast 509 586 33,000  Level Indianapolis Center
04:08PM 39.4528 -81.4400 33° Northeast 506 582 33,000  Level Indianapolis Center
04:09PM 39.5703 -81.3361 34° Northeast 509 586 33,000  Level Indianapolis Center
04:10PM 39.6878 -81.2328 34° Northeast 509 586 33,000  Level Indianapolis Center
04:11PM 39.8064 -81.1300 34° Northeast 510 587 33,000  Level Indianapolis Center
04:12PM 39.9483 -81.0033 34° Northeast 515 593 33,000  Level Indianapolis Center
04:13PM 40.0594 -80.9039 34° Northeast 513 590 33,000  Level Indianapolis Center
04:14PM 40.1775 -80.7983 34° Northeast 513 590 33,000  Level Indianapolis Center
04:15PM 40.3172 -80.6731 34° Northeast 510 587 33,000  Level Cleveland Center
04:16PM 40.4342 -80.5694 34° Northeast 515 593 33,000  Level Cleveland Center
04:17PM 40.5528 -80.4600 35° Northeast 515 593 33,000  Level Cleveland Center
04:18PM 40.6672 -80.3558 35° Northeast 508 585 33,000  Level Cleveland Center
04:19PM 40.7858 -80.2514 34° Northeast 508 585 33,000  Level Cleveland Center
04:20PM 40.8811 -80.0969 51° Northeast 508 585 33,000  Level Cleveland Center
04:21PM 40.8347 -79.9519 113° Southeast 383 441 33,000  Level Cleveland Center
04:22PM 40.7303 -79.9092 163° South 300 345 33,000  Level Cleveland Center
04:23PM 40.6367 -79.9647 204° Southwest 278 320 33,000 180 Level Cleveland Center
04:24PM 40.5558 -80.0311 212° Southwest 326 375 33,400 480 Climbing Cleveland Center
04:25PM 40.4622 -80.1111 213° Southwest 356 410 34,000 240 Climbing Cleveland Center
04:26PM 40.3750 -80.1825 212° Southwest 362 417 34,000  Level Cleveland Center
04:27PM 40.2897 -80.2511 212° Southwest 362 417 34,000  Level Cleveland Center
04:28PM 40.2044 -80.3194 211° Southwest 369 425 34,000  Level Cleveland Center
04:29PM 40.1294 -80.3794 211° Southwest 369 425 34,000  Level Cleveland Center
04:30PM 40.0419 -80.4503 212° Southwest 369 425 34,000  Level Cleveland Center
04:31PM 39.9525 -80.5208 211° Southwest 369 425 34,000  Level Cleveland Center
04:32PM 39.8503 -80.5986 210° Southwest 374 430 34,000  Level Indianapolis Center
04:33PM 39.7611 -80.6719 212° Southwest 377 434 34,000  Level Indianapolis Center
04:34PM 39.6714 -80.7428 211° Southwest 376 433 34,000  Level Indianapolis Center
04:35PM 39.5828 -80.8153 212° Southwest 376 433 34,000  Level Indianapolis Center
04:36PM 39.4939 -80.8858 211° Southwest 375 432 34,000  Level Indianapolis Center
04:38PM 39.4042 -80.9553 211° Southwest 374 430 34,000  Level Indianapolis Center
04:39PM 39.2950 -81.0411 211° Southwest 382 440 34,000  Level Indianapolis Center
04:40PM 39.2036 -81.1108 211° Southwest 380 437 34,000  Level Indianapolis Center
04:41PM 39.1122 -81.1822 211° Southwest 382 440 34,000  Level Indianapolis Center
04:42PM 39.0211 -81.2528 211° Southwest 382 440 34,000  Level Indianapolis Center
04:43PM 38.9289 -81.3239 211° Southwest 385 443 34,000  Level Indianapolis Center
04:44PM 38.8369 -81.3944 211° Southwest 385 443 34,000  Level Indianapolis Center
04:45PM 38.7406 -81.4700 211° Southwest 384 442 34,000  Level Indianapolis Center
04:46PM 38.6344 -81.5511 211° Southwest 382 440 34,000  Level Indianapolis Center
04:47PM 38.5544 -81.6133 211° Southwest 383 441 34,000  Level Indianapolis Center
04:48PM 38.4617 -81.6847 211° Southwest 388 447 34,000  Level Indianapolis Center
04:49PM 38.3425 -81.7453 202° Southwest 387 445 34,000  Level Indianapolis Center
04:50PM 38.2347 -81.7742 192° South 393 452 34,000  Level Indianapolis Center
04:51PM 38.1308 -81.8144 197° South 392 451 34,000  Level Indianapolis Center
04:52PM 38.0361 -81.8858 211° Southwest 395 455 34,000  Level Indianapolis Center
04:53PM 37.9511 -81.9708 218° Southwest 390 449 34,000  Level Indianapolis Center
04:54PM 37.8628 -82.0564 217° Southwest 396 456 34,000  Level Indianapolis Center
04:55PM 37.7678 -82.1514 218° Southwest 395 455 34,000  Level Indianapolis Center
04:56PM 37.6792 -82.2358 217° Southwest 399 459 34,000  Level Indianapolis Center
04:57PM 37.5772 -82.3361 218° Southwest 400 460 34,000  Level Indianapolis Center
04:58PM 37.4869 -82.4211 217° Southwest 404 465 34,000  Level Indianapolis Center
04:59PM 37.3958 -82.5069 217° Southwest 409 471 34,000  Level Indianapolis Center
05:00PM 37.3019 -82.5919 216° Southwest 416 479 34,000  Level Indianapolis Center
05:01PM 37.2044 -82.6681 212° Southwest 413 475 34,000  Level Indianapolis Center
05:02PM 37.0861 -82.7469 208° Southwest 411 473 34,000  Level Indianapolis Center
05:03PM 36.9847 -82.8150 208° Southwest 412 474 34,000  Level Indianapolis Center
05:04PM 36.8781 -82.8450 193° South 424 488 34,000  Level Indianapolis Center
05:05PM 36.7431 -82.8583 185° South 424 488 34,000  Level Indianapolis Center
05:06PM 36.6236 -82.8503 177° South 429 494 34,000  Level Indianapolis Center
05:08PM 36.5053 -82.8431 177° South 426 490 34,000  Level Indianapolis Center
05:09PM 36.3569 -82.8372 178° South 423 487 34,000  Level Atlanta Center
05:10PM 36.2422 -82.8442 183° South 423 487 34,000  Level Atlanta Center
05:11PM 36.1256 -82.8536 184° South 418 481 34,000  Level Atlanta Center
05:12PM 36.0089 -82.8683 186° South 423 487 34,000  Level Atlanta Center
05:13PM 35.8964 -82.8828 186° South 423 487 34,000  Level Atlanta Center
05:14PM 35.7775 -82.8972 186° South 423 487 34,000  Level Atlanta Center
05:15PM 35.6608 -82.9117 186° South 423 487 34,000  Level Atlanta Center
05:16PM 35.5442 -82.9258 186° South 428 493 34,000 -540 Level Atlanta Center
05:17PM 35.4319 -82.9631 195° South 422 486 33,000 -1,500 Descending Atlanta Center
05:18PM 35.3281 -83.0256 206° Southwest 419 482 31,000 -1,740 Descending Atlanta Center
05:19PM 35.2244 -83.0956 209° Southwest 424 488 29,600 -1,020 Descending Atlanta Center
05:20PM 35.1225 -83.1600 207° Southwest 424 488 29,000 -360 Descending Atlanta Center
05:21PM 35.0167 -83.2372 211° Southwest 430 495 28,900 -540 Descending Atlanta Center
05:22PM 34.9147 -83.3017 207° Southwest 430 495 28,000 -480 Descending Atlanta Center
05:23PM 34.8089 -83.3758 210° Southwest 435 501 28,000 3,000 Level Atlanta Center
05:24PM 34.7047 -83.4425 208° Southwest 435 501 34,000 -1,860 Climbing Atlanta Center
05:25PM 34.5944 -83.5139 208° Southwest 435 501 24,300 -6,900 Descending Atlanta Center
05:26PM 34.4864 -83.5853 209° Southwest 435 501 20,300 -3,480 Descending Atlanta Center
05:27PM 34.3822 -83.6536 208° Southwest 440 506 17,400 -2,940 Descending Atlanta Center
05:28PM 34.2781 -83.7219 208° Southwest 434 499 14,500 -2,700 Descending Atlanta Center
05:29PM 34.1800 -83.7853 208° Southwest 416 479 12,000 -1,320 Descending Atlanta Center
05:30PM 34.0989 -83.8406 209° Southwest 371 427 11,900 -420 Descending Atlanta Center
05:31PM 34.0383 -83.8933 216° Southwest 330 380 11,200 -960 Descending Atlanta Center
05:32PM 33.9833 -83.9667 228° Southwest 291 335 10,100 -1,140 Descending Atlanta TRACON
05:33PM 33.8833 -83.9833 188° South 323 372 9,000 -540 Descending Atlanta TRACON
05:34PM 33.8067 -83.9764 176° South 315 362 9,000 -60 Level Atlanta Center
05:35PM 33.7192 -83.9789 181° South 321 369 8,900 -660 Descending Atlanta Center
05:36PM 33.6397 -84.0139 200° South 286 329 7,700 -1,200 Descending Atlanta Center
05:37PM 33.6272 -84.0811 257° West 230 265 6,600 -1,200 Descending Atlanta Center
05:38PM 33.6333 -84.1333 278° West 175 201 5,500 -1,200 Descending Atlanta TRACON
05:39PM 33.6333 -84.2000 270° West 181 208 4,400 -900 Descending Atlanta TRACON
05:40PM 33.6333 -84.2500 270° West 165 190 3,700 -900 Descending Atlanta TRACON
05:40PM 33.6333 -84.3000 270° West 154 177 2,800 -900 Descending Atlanta TRACON
05:41PM 33.6333 -84.3500 270° West 141 162 2,100 -720 Descending Atlanta TRACON
05:42PM 33.6333 -84.4000 270° West 144 166 1,400 -720 Descending Atlanta TRACON
05:44PM 33.6367 -84.4279 270° West  Level Estimated
05:51PM 33.6367 -84.4279 64° Northeast  Level Estimated